Main page
METAR-TAF:

METAR-TAF

Airports :

Hood Army Airfield

Fort Hood / Killeen, Texas, United States

latitude: 31-06N, longitude: 097-20W, elevation: 928 ft

Current weather observation

The report was made 1 hour and 11 minutes ago, at 19:58 UTC
Calm wind
Temperature 59°F
Humidity 39%
Pressure 30.24 in. Hg
Visibility: 10 miles
Overcast at a height of 9000 ft

METAR: KHLR 211958Z AUTO 00000KT 10SM OVC090 15/01 A3024 RMK AO2 LTG DSNT SE-S SLP240 T01450008

Time: 14:09 (21:09 UTC)


TAF: missing

Weather observations and forecasts of more than 4000 airports (METAR and TAF reports).

The available stations are represented by yellow and red dots on the map.

Hover mouse over dot to see the name of the station.

Then click to see weather observations and forecasts.

To change the map : click on the green buttons with a black cross to zoom in, on the green button with a dash to zoom out, or on the green arrows for adjacent maps.


METAR-TAF: